Rubicon Bay, California
Current Conditions -  °F | °C
As of 7:53 AM on Friday 24 Oct 2014 (Local Time) from KTVL Reporting Station
Clear Clear  
Wind Chill: 33°   Ceiling: Unl
Heat Index: 33°   Visibility: 10mi
Dew Point: 22°   Wind: 0mph
Humidity: 64%   Direction: NA
Pressure: 30.14"   Gusts: NA
Location:  39.0516°N, 120.165°W
Report Text: KTVL 241453Z AUTO 00000KT 10SM CLR 01/M06 A3014 RMK AO2 SLP181 T00061056 53004
Loading
Personal Weather Stations






























Interactive Weather Map
Tropical Storm Tracking
New forecast layout! Learn more

10-Day Weather Forecast

Advertisements
Track Severe Weather on mobile